Time;durP1;ratioP1;P1;durP2;ratioP2;P2;SDS_P1;SDS_P2;PMS_P1;PMS_P2;Temp;Humidity;BMP_temperature;BMP_pressure;BME280_temperature;BME280_humidity;BME280_pressure;Samples;Min_cycle;Max_cycle;Signal;HPM_P1;HPM_P2
2023/10/12 00:02:04;;;;;;;0.10;0.10;;;18.20;99.90;;;;;;5033229;28;20021;-72
2023/10/12 00:04:41;;;;;;;4.68;2.17;;;18.20;99.90;;;;;;5033268;28;20549;-71
2023/10/12 00:07:14;;;;;;;0.00;0.00;;;18.10;99.90;;;;;;5033043;28;20067;-72
2023/10/12 00:10:00;;;;;;;3.92;2.35;;;18.00;99.90;;;;;;5033258;28;20083;-72
2023/10/12 00:12:26;;;;;;;0.13;0.13;;;17.80;99.90;;;;;;5033116;28;20087;-71
2023/10/12 00:14:55;;;;;;;2.28;1.38;;;17.90;99.90;;;;;;5032859;28;20021;-71
2023/10/12 00:17:24;;;;;;;0.28;0.28;;;17.90;99.90;;;;;;5032878;28;20068;-71
2023/10/12 00:19:53;;;;;;;4.20;1.75;;;18.10;99.90;;;;;;5031795;28;20488;-73
2023/10/12 00:22:19;;;;;;;0.00;0.00;;;18.10;99.90;;;;;;5032990;28;20100;-72
2023/10/12 00:24:44;;;;;;;0.08;0.08;;;18.30;99.90;;;;;;5033048;28;20151;-72
2023/10/12 00:27:15;;;;;;;4.80;0.45;;;18.10;99.90;;;;;;5032850;28;20017;-72
2023/10/12 00:29:42;;;;;;;4.88;1.83;;;18.20;99.90;;;;;;5032757;28;20042;-72
2023/10/12 00:32:09;;;;;;;0.20;0.20;;;18.10;99.90;;;;;;5031250;28;20029;-72
2023/10/12 00:34:37;;;;;;;0.00;0.00;;;18.00;99.90;;;;;;5031763;28;20371;-73
2023/10/12 00:37:03;;;;;;;1.90;0.95;;;18.10;99.90;;;;;;5032838;28;20099;-73
2023/10/12 00:39:47;;;;;;;2.28;0.80;;;17.70;99.90;;;;;;5032994;28;20394;-75
2023/10/12 00:42:18;;;;;;;0.52;0.40;;;17.80;99.90;;;;;;5032593;28;20458;-74
2023/10/12 00:44:52;;;;;;;0.17;0.15;;;18.00;99.90;;;;;;5031249;28;20087;-74
2023/10/12 00:47:43;;;;;;;0.00;0.00;;;17.80;99.90;;;;;;5031541;28;20032;-73
2023/10/12 00:50:13;;;;;;;0.00;0.00;;;18.00;99.90;;;;;;5031640;28;20033;-74
2023/10/12 00:52:55;;;;;;;0.00;0.00;;;18.20;99.90;;;;;;5031105;28;20444;-74
2023/10/12 00:55:21;;;;;;;;;;;18.00;99.90;;;;;;5031874;28;20437;-76
2023/10/12 00:57:50;;;;;;;0.00;0.00;;;17.90;99.90;;;;;;5032547;28;19909;-73
2023/10/12 01:00:17;;;;;;;0.00;0.00;;;17.90;99.90;;;;;;5032640;28;20026;-73
2023/10/12 01:02:47;;;;;;;0.00;0.00;;;18.00;99.90;;;;;;5032421;28;20025;-73
2023/10/12 01:05:17;;;;;;;4.13;2.03;;;17.90;99.90;;;;;;5032514;28;20065;-73
2023/10/12 01:07:43;;;;;;;5.38;0.75;;;17.60;99.90;;;;;;5014869;28;20029;-73
2023/10/12 01:10:10;;;;;;;0.00;0.00;;;17.80;99.90;;;;;;5032397;28;20390;-73
2023/10/12 01:12:37;;;;;;;0.00;0.00;;;17.80;99.90;;;;;;5032161;28;20470;-73
2023/10/12 01:15:11;;;;;;;3.17;1.05;;;17.70;99.90;;;;;;5031187;28;20037;-72
2023/10/12 01:17:39;;;;;;;1.85;1.00;;;17.90;99.90;;;;;;5029947;28;20033;-73
2023/10/12 01:20:15;;;;;;;0.08;0.08;;;17.70;99.90;;;;;;5027116;28;20032;-73
2023/10/12 01:22:41;;;;;;;0.00;0.00;;;17.60;99.90;;;;;;5014484;28;20025;-73
2023/10/12 01:25:19;;;;;;;2.50;2.30;;;17.70;99.90;;;;;;5034074;28;20033;-73
2023/10/12 01:27:46;;;;;;;1.40;1.15;;;17.60;99.90;;;;;;5035876;28;20553;-73
2023/10/12 01:30:27;;;;;;;0.70;0.47;;;17.60;99.90;;;;;;5035052;28;20036;-74
2023/10/12 01:32:59;;;;;;;0.00;0.00;;;17.80;99.90;;;;;;5036226;28;20048;-73
2023/10/12 01:35:27;;;;;;;0.20;0.20;;;17.80;99.90;;;;;;5035972;28;20030;-73
2023/10/12 01:38:00;;;;;;;4.40;2.45;;;17.70;99.90;;;;;;5035996;28;20489;-74
2023/10/12 01:43:14;;;;;;;0.00;0.00;;;17.60;99.90;;;;;;5035915;28;20106;-74
2023/10/12 01:46:23;;;;;;;0.22;0.22;;;17.70;99.90;;;;;;5036001;28;20029;-73
2023/10/12 01:48:33;;;;;;;0.00;0.00;;;18.00;99.90;;;;;;5029937;28;20049;-74
2023/10/12 01:51:08;;;;;;;2.08;1.85;;;18.30;99.90;;;;;;5035868;28;20037;-74
2023/10/12 01:53:34;;;;;;;1.98;1.13;;;18.10;99.90;;;;;;5035698;28;20041;-74
2023/10/12 01:56:00;;;;;;;0.00;0.00;;;18.00;99.90;;;;;;5034149;28;20029;-74
2023/10/12 01:58:32;;;;;;;2.35;2.10;;;18.00;99.90;;;;;;5034380;28;20095;-73
2023/10/12 02:01:05;;;;;;;0.10;0.10;;;17.90;99.90;;;;;;5017900;28;20095;-74
2023/10/12 02:03:32;;;;;;;0.00;0.00;;;17.90;99.90;;;;;;5035695;28;20040;-75
2023/10/12 02:06:03;;;;;;;0.30;0.30;;;17.80;99.90;;;;;;5017895;28;20018;-73
2023/10/12 02:08:39;;;;;;;2.75;1.00;;;17.80;99.90;;;;;;5033938;28;20557;-73
2023/10/12 02:11:10;;;;;;;0.43;0.32;;;18.00;99.90;;;;;;5033970;28;20509;-73
2023/10/12 02:13:36;;;;;;;0.75;0.75;;;18.00;99.90;;;;;;5035264;28;20029;-73
2023/10/12 02:16:03;;;;;;;0.17;0.17;;;17.70;99.90;;;;;;5035343;28;20490;-73
2023/10/12 02:18:30;;;;;;;21.73;1.45;;;17.70;99.90;;;;;;5026705;28;20034;-75
2023/10/12 02:23:32;;;;;;;7.05;4.07;;;17.50;99.90;;;;;;5033675;28;20029;-73
2023/10/12 02:25:59;;;;;;;5.15;2.35;;;17.60;99.90;;;;;;5035078;28;20104;-73
2023/10/12 02:28:29;;;;;;;9.35;6.60;;;17.50;99.90;;;;;;5034966;28;20052;-73
2023/10/12 02:30:54;;;;;;;3.83;2.15;;;17.40;99.90;;;;;;5035071;28;20037;-73
2023/10/12 02:33:27;;;;;;;15.77;5.03;;;17.50;99.90;;;;;;5034800;28;20025;-74
2023/10/12 02:35:54;;;;;;;0.00;0.00;;;17.50;99.90;;;;;;5034908;28;20553;-73
2023/10/12 02:38:21;;;;;;;1.35;1.25;;;17.50;99.90;;;;;;5034770;28;20025;-74
2023/10/12 02:40:57;;;;;;;0.28;0.28;;;17.60;99.90;;;;;;5034688;28;20096;-74
2023/10/12 02:43:27;;;;;;;1.45;0.90;;;17.60;99.90;;;;;;5033330;28;20037;-74
2023/10/12 02:45:58;;;;;;;0.10;0.10;;;17.80;99.90;;;;;;5035011;28;20045;-73
2023/10/12 02:48:24;;;;;;;0.25;0.25;;;17.80;99.90;;;;;;5034555;28;20021;-74
2023/10/12 02:51:01;;;;;;;0.22;0.22;;;17.70;99.90;;;;;;5034845;28;20030;-74
2023/10/12 02:53:29;;;;;;;0.05;0.05;;;17.80;99.90;;;;;;5034180;28;20029;-73
2023/10/12 02:55:58;;;;;;;3.60;2.00;;;17.70;99.90;;;;;;5033676;28;20042;-74
2023/10/12 02:58:28;;;;;;;0.43;0.43;;;17.70;99.90;;;;;;5033305;28;20017;-72
2023/10/12 03:00:57;;;;;;;4.78;3.50;;;17.60;99.90;;;;;;5034452;28;20021;-76
2023/10/12 03:03:25;;;;;;;0.00;0.00;;;17.60;99.90;;;;;;5034396;28;20053;-73
2023/10/12 03:05:53;;;;;;;1.35;1.25;;;17.50;99.90;;;;;;5034723;28;20037;-75
2023/10/12 03:08:22;;;;;;;14.10;5.38;;;17.60;99.90;;;;;;5034155;28;20057;-73
2023/10/12 03:13:25;;;;;;;38.30;5.35;;;17.50;99.90;;;;;;5028562;28;20478;-73
2023/10/12 03:15:58;;;;;;;5.63;2.78;;;17.50;99.90;;;;;;5026088;28;20041;-74
2023/10/12 03:18:26;;;;;;;2.03;1.83;;;17.50;99.90;;;;;;5008662;28;20021;-74
2023/10/12 03:21:04;;;;;;;0.88;0.88;;;17.50;99.90;;;;;;5009288;28;20086;-73
2023/10/12 03:23:33;;;;;;;4.95;3.38;;;17.70;99.90;;;;;;5009095;28;20028;-73
2023/10/12 03:26:16;;;;;;;5.95;1.90;;;17.60;99.90;;;;;;5010778;28;20382;-73
2023/10/12 03:28:46;;;;;;;2.03;1.92;;;17.40;99.90;;;;;;5006534;28;20029;-72
2023/10/12 03:31:18;;;;;;;6.45;4.45;;;17.30;99.90;;;;;;5034256;28;20037;-73
2023/10/12 03:33:47;;;;;;;5.68;3.35;;;17.30;99.90;;;;;;5033936;28;20035;-73
2023/10/12 03:36:25;;;;;;;0.45;0.40;;;17.20;99.90;;;;;;5033889;28;20033;-74
2023/10/12 03:52:39;;;;;;;2.17;1.63;;;17.40;99.90;;;;;;5033251;28;20040;-76
2023/10/12 03:57:45;;;;;;;3.30;2.83;;;17.30;99.90;;;;;;5033659;28;20106;-73
2023/10/12 04:05:17;;;;;;;15.25;5.15;;;17.20;99.90;;;;;;5033457;28;20026;-73
2023/10/12 04:08:00;;;;;;;6.53;3.30;;;17.10;99.90;;;;;;5033045;28;20402;-73
2023/10/12 04:18:42;;;;;;;4.18;1.50;;;17.10;99.90;;;;;;5032963;28;20033;-72
2023/10/12 04:21:14;;;;;;;0.68;0.68;;;17.20;99.90;;;;;;5032748;28;20366;-72
2023/10/12 04:23:47;;;;;;;1.92;1.83;;;17.10;99.90;;;;;;5033130;28;20108;-73
2023/10/12 04:28:53;;;;;;;5.93;2.63;;;17.00;99.90;;;;;;5033050;28;20052;-73
2023/10/12 04:32:10;;;;;;;3.40;2.17;;;17.00;99.90;;;;;;5032727;28;20033;-72
2023/10/12 04:34:08;;;;;;;0.45;0.45;;;16.90;99.90;;;;;;5030540;28;20037;-77
2023/10/12 04:36:45;;;;;;;0.60;0.50;;;16.90;99.90;;;;;;5032343;28;20040;-76
2023/10/12 04:39:18;;;;;;;9.77;5.63;;;17.00;99.90;;;;;;5032902;28;20037;-75
2023/10/12 04:46:51;;;;;;;;;;;17.00;99.90;;;;;;5033086;28;20490;-76
2023/10/12 04:51:50;;;;;;;0.95;0.93;;;17.10;99.90;;;;;;5032638;28;20029;-76
2023/10/12 04:54:25;;;;;;;0.90;0.90;;;17.00;99.90;;;;;;5032809;28;20025;-76
2023/10/12 04:57:12;;;;;;;0.10;0.10;;;17.10;99.90;;;;;;5031286;28;20107;-76
2023/10/12 04:59:50;;;;;;;1.75;1.65;;;16.90;99.90;;;;;;5032359;28;20040;-76
2023/10/12 05:02:28;;;;;;;1.25;1.02;;;17.00;99.90;;;;;;5036421;28;20100;-76
2023/10/12 05:09:49;;;;;;;1.15;1.05;;;17.20;99.90;;;;;;5036748;28;20151;-76
2023/10/12 05:12:16;;;;;;;1.88;1.75;;;17.30;99.90;;;;;;5035203;28;20049;-76
2023/10/12 05:14:41;;;;;;;5.53;1.92;;;17.20;99.90;;;;;;5018751;28;20382;-75
2023/10/12 05:17:08;;;;;;;0.30;0.30;;;17.10;99.90;;;;;;5036453;28;20068;-76
2023/10/12 05:19:34;;;;;;;7.75;4.50;;;17.20;99.90;;;;;;5035946;28;20026;-76
2023/10/12 05:22:00;;;;;;;4.05;2.47;;;17.10;99.90;;;;;;5036460;28;20053;-75
2023/10/12 05:24:26;;;;;;;1.85;0.95;;;17.10;99.90;;;;;;5035146;28;20049;-76
2023/10/12 05:26:57;;;;;;;1.98;0.65;;;17.20;99.90;;;;;;5036265;28;20416;-76
2023/10/12 05:32:36;;;;;;;17.80;3.60;;;17.30;99.90;;;;;;5017917;28;20401;-75
2023/10/12 05:39:55;;;;;;;1.23;0.88;;;17.20;99.90;;;;;;5009254;28;20092;-75
2023/10/12 05:42:25;;;;;;;0.47;0.47;;;17.30;99.90;;;;;;5015916;28;20026;-73
2023/10/12 05:44:52;;;;;;;0.00;0.00;;;17.20;99.90;;;;;;5016112;28;20039;-73
2023/10/12 05:47:28;;;;;;;2.13;1.92;;;17.30;99.90;;;;;;5014613;28;20018;-72
2023/10/12 05:49:57;;;;;;;12.63;2.45;;;17.20;99.90;;;;;;5009525;28;20058;-74
2023/10/12 05:52:24;;;;;;;6.13;2.83;;;17.10;99.90;;;;;;5014657;28;20065;-74
2023/10/12 05:54:57;;;;;;;1.70;0.55;;;17.10;99.90;;;;;;5015944;28;20025;-74
2023/10/12 05:57:25;;;;;;;2.15;1.17;;;17.10;99.90;;;;;;5015771;28;20060;-74
2023/10/12 05:59:51;;;;;;;7.78;4.35;;;17.10;99.90;;;;;;5016028;28;20030;-73
2023/10/12 06:02:17;;;;;;;0.57;0.57;;;17.30;99.90;;;;;;5015166;28;20034;-75
2023/10/12 06:04:44;;;;;;;1.20;1.10;;;17.30;99.90;;;;;;5005695;28;20047;-72
2023/10/12 06:07:11;;;;;;;1.45;0.85;;;17.20;99.90;;;;;;5009875;28;20083;-72
2023/10/12 06:09:37;;;;;;;0.25;0.25;;;17.20;99.90;;;;;;5015170;28;20022;-72
2023/10/12 06:12:07;;;;;;;2.13;1.92;;;17.10;99.90;;;;;;5014767;28;20042;-72
2023/10/12 06:14:38;;;;;;;2.35;1.58;;;17.10;99.90;;;;;;5015200;28;20459;-72
2023/10/12 06:17:27;;;;;;;0.88;0.80;;;17.00;99.90;;;;;;5014443;28;20044;-72
2023/10/12 06:19:55;;;;;;;1.55;1.17;;;17.10;99.90;;;;;;5013902;28;20053;-72
2023/10/12 06:22:23;;;;;;;0.15;0.15;;;17.30;99.90;;;;;;5014609;28;20030;-72
2023/10/12 06:24:52;;;;;;;5.07;1.50;;;17.50;99.90;;;;;;5014735;28;20101;-72
2023/10/12 06:29:52;;;;;;;8.50;2.55;;;17.20;99.90;;;;;;5014230;28;20029;-72
2023/10/12 06:32:19;;;;;;;2.42;1.70;;;17.20;99.90;;;;;;5014260;28;20037;-73
2023/10/12 06:35:34;;;;;;;1.13;0.40;;;17.20;99.90;;;;;;5011209;28;20041;-75
2023/10/12 06:45:48;;;;;;;2.75;1.80;;;17.10;99.90;;;;;;5014132;28;20026;-75
2023/10/12 06:51:03;;;;;;;2.42;0.63;;;17.20;99.90;;;;;;5005415;28;20048;-75
2023/10/12 06:53:36;;;;;;;2.97;1.58;;;17.10;99.90;;;;;;5012735;28;20049;-75
2023/10/12 06:56:24;;;;;;;4.70;1.60;;;17.20;99.90;;;;;;5013064;28;20441;-74
2023/10/12 07:01:39;;;;;;;3.40;1.60;;;17.30;99.90;;;;;;5013286;28;20044;-76
2023/10/12 07:04:17;;;;;;;0.25;0.25;;;17.30;99.90;;;;;;5013982;28;20128;-76
2023/10/12 07:07:07;;;;;;;10.35;5.43;;;17.30;99.90;;;;;;5013815;28;20048;-75
2023/10/12 07:09:38;;;;;;;4.25;2.60;;;17.30;99.90;;;;;;5006664;28;20042;-74
2023/10/12 07:12:09;;;;;;;4.65;1.20;;;17.40;99.90;;;;;;5011118;28;20030;-77
2023/10/12 07:14:55;;;;;;;2.10;1.65;;;17.40;99.90;;;;;;5000256;28;20032;-76
2023/10/12 07:17:34;;;;;;;2.55;1.55;;;17.30;99.90;;;;;;5013003;28;20034;-76
2023/10/12 07:20:00;;;;;;;0.25;0.25;;;17.30;99.90;;;;;;5012773;28;20041;-75
2023/10/12 07:22:26;;;;;;;0.00;0.00;;;17.30;99.90;;;;;;5012110;28;20041;-70
2023/10/12 07:24:53;;;;;;;3.03;1.90;;;17.20;99.90;;;;;;5012995;28;20018;-70
2023/10/12 07:27:21;;;;;;;2.42;1.55;;;17.50;99.90;;;;;;5017659;28;20022;-69
2023/10/12 07:29:51;;;;;;;0.00;0.00;;;17.60;99.90;;;;;;5027233;28;20040;-80
2023/10/12 07:32:24;;;;;;;3.17;1.45;;;17.50;99.90;;;;;;5023564;28;20034;-80
2023/10/12 07:34:58;;;;;;;0.17;0.17;;;17.50;99.90;;;;;;5033267;28;20029;-80
2023/10/12 07:37:27;;;;;;;0.73;0.70;;;17.50;99.90;;;;;;5033782;28;20030;-80
2023/10/12 07:39:56;;;;;;;0.15;0.15;;;17.40;99.90;;;;;;5029314;28;20115;-80
2023/10/12 07:42:27;;;;;;;0.30;0.10;;;17.50;99.90;;;;;;5016120;28;20084;-80
2023/10/12 07:44:56;;;;;;;3.47;1.35;;;17.60;99.90;;;;;;5033409;28;20021;-80
2023/10/12 07:47:32;;;;;;;0.00;0.00;;;17.50;99.90;;;;;;5026996;28;20040;-80
2023/10/12 07:50:07;;;;;;;0.20;0.20;;;17.60;99.90;;;;;;5032276;28;20474;-80
2023/10/12 07:52:46;;;;;;;0.00;0.00;;;17.70;99.90;;;;;;5033853;28;20029;-80
2023/10/12 07:55:13;;;;;;;0.95;0.90;;;17.70;99.90;;;;;;5033495;28;20036;-80
2023/10/12 07:57:39;;;;;;;1.55;1.45;;;17.70;99.90;;;;;;5029640;28;20041;-80
2023/10/12 08:10:56;;;;;;;1.17;1.08;;;17.80;99.90;;;;;;5033559;28;20044;-80
2023/10/12 08:21:58;;;;;;;0.10;0.10;;;17.70;99.90;;;;;;5033063;28;20029;-79
2023/10/12 08:23:58;;;;;;;2.63;0.65;;;17.60;99.90;;;;;;5025688;28;20571;-80
2023/10/12 08:31:48;;;;;;;0.00;0.00;;;17.40;99.90;;;;;;5025597;28;20036;-80
2023/10/12 08:39:38;;;;;;;0.90;0.63;;;17.60;99.90;;;;;;5032962;28;20505;-79
2023/10/12 08:44:59;;;;;;;5.40;3.15;;;17.50;99.90;;;;;;5032978;28;20029;-79
2023/10/12 08:52:34;;;;;;;4.78;0.77;;;17.70;99.90;;;;;;5032710;28;20025;-79
2023/10/12 08:55:12;;;;;;;3.33;1.20;;;17.70;99.90;;;;;;5025180;28;20088;-79
2023/10/12 08:57:55;;;;;;;0.45;0.32;;;17.50;99.90;;;;;;5006280;28;20034;-79
2023/10/12 09:05:51;;;;;;;0.00;0.00;;;17.50;99.90;;;;;;5032604;28;20392;-79
2023/10/12 09:11:13;;;;;;;2.38;2.17;;;17.70;99.90;;;;;;5032183;28;20100;-79
2023/10/12 09:13:45;;;;;;;7.38;1.58;;;17.60;99.90;;;;;;5032721;28;20040;-79
2023/10/12 09:16:14;;;;;;;0.00;0.00;;;17.80;99.90;;;;;;5031211;28;20025;-79
2023/10/12 09:18:49;;;;;;;0.32;0.32;;;17.70;99.90;;;;;;5032697;28;20032;-80
2023/10/12 09:32:13;;;;;;;2.42;1.90;;;17.60;99.90;;;;;;5032478;28;20500;-80
2023/10/12 09:36:43;;;;;;;0.10;0.10;;;17.60;99.90;;;;;;5022833;28;20060;-79
2023/10/12 09:39:24;;;;;;;2.20;0.80;;;17.70;99.90;;;;;;5032311;28;20033;-79
2023/10/12 09:41:59;;;;;;;0.85;0.85;;;17.50;99.90;;;;;;5011637;28;20026;-79
2023/10/12 09:44:26;;;;;;;6.35;2.72;;;17.40;99.90;;;;;;5032335;28;20032;-79
2023/10/12 09:46:56;;;;;;;2.53;1.30;;;17.40;99.90;;;;;;5034277;28;20036;-79
2023/10/12 09:49:27;;;;;;;2.22;1.98;;;17.60;99.90;;;;;;5031304;28;20356;-79
2023/10/12 09:52:03;;;;;;;0.00;0.00;;;17.40;99.90;;;;;;5031131;28;20504;-79
2023/10/12 09:55:14;;;;;;;0.55;0.50;;;17.50;99.90;;;;;;5034476;28;20040;-79
2023/10/12 09:57:49;;;;;;;11.07;2.05;;;17.50;99.90;;;;;;4942291;28;20129;-80
2023/10/12 10:00:55;;;;;;;0.38;0.38;;;17.40;99.90;;;;;;5028634;28;20056;-80
2023/10/12 10:03:17;;;;;;;4.55;0.77;;;17.50;99.90;;;;;;5035418;28;20481;-80
2023/10/12 10:05:54;;;;;;;1.48;0.60;;;17.50;99.90;;;;;;5035595;28;20108;-81
2023/10/12 10:08:26;;;;;;;1.40;0.38;;;17.60;99.90;;;;;;5025881;28;20109;-81
2023/10/12 10:11:11;;;;;;;0.20;0.20;;;17.80;99.90;;;;;;5035207;28;20482;-81
2023/10/12 10:13:49;;;;;;;4.75;1.50;;;18.00;99.90;;;;;;5034184;28;20470;-81
2023/10/12 10:16:17;;;;;;;0.13;0.13;;;18.10;99.90;;;;;;5034170;28;20033;-81
2023/10/12 10:19:10;;;;;;;0.73;0.52;;;18.10;99.90;;;;;;5034132;28;20068;-80
2023/10/12 10:21:38;;;;;;;0.20;0.20;;;18.00;99.90;;;;;;5035305;28;20025;-81
2023/10/12 10:24:19;;;;;;;0.20;0.20;;;17.90;99.90;;;;;;5034731;28;20044;-80
2023/10/12 10:26:47;;;;;;;3.00;2.63;;;18.20;99.90;;;;;;5035136;28;20056;-80
2023/10/12 10:29:20;;;;;;;2.20;1.90;;;18.20;99.90;;;;;;5035231;28;20493;-80
2023/10/12 10:31:51;;;;;;;8.35;1.02;;;18.20;99.90;;;;;;5034829;28;20033;-80
2023/10/12 10:34:26;;;;;;;5.50;1.52;;;18.50;99.90;;;;;;5033374;28;20053;-80
2023/10/12 10:36:54;;;;;;;1.08;0.77;;;18.30;99.90;;;;;;5033502;28;20036;-80
2023/10/12 10:41:46;;;;;;;1.02;0.73;;;18.10;99.90;;;;;;5022397;28;20030;-80
2023/10/12 10:44:16;;;;;;;2.08;1.88;;;18.00;99.90;;;;;;5033411;28;20064;-80
2023/10/12 10:46:47;;;;;;;3.88;1.35;;;18.10;99.90;;;;;;5033598;28;20036;-80
2023/10/12 10:49:16;;;;;;;6.50;3.78;;;18.00;99.90;;;;;;5034833;28;20475;-80
2023/10/12 10:51:47;;;;;;;0.75;0.75;;;17.80;99.90;;;;;;5033494;28;20029;-80
2023/10/12 10:54:20;;;;;;;2.33;1.27;;;17.90;99.90;;;;;;5034740;28;20513;-80
2023/10/12 10:56:49;;;;;;;1.42;1.33;;;17.80;99.90;;;;;;5034580;28;20041;-80
2023/10/12 10:59:18;;;;;;;1.48;1.38;;;17.90;99.90;;;;;;5034518;28;20101;-79
2023/10/12 11:01:50;;;;;;;3.10;1.60;;;17.70;99.90;;;;;;5034678;28;20040;-80
2023/10/12 11:07:03;;;;;;;1.75;0.52;;;17.80;99.90;;;;;;5033014;28;20124;-80
2023/10/12 11:09:31;;;;;;;2.70;1.85;;;18.00;99.90;;;;;;5033170;28;20033;-80
2023/10/12 11:12:00;;;;;;;0.00;0.00;;;18.00;99.90;;;;;;5033205;28;20021;-80
2023/10/12 11:14:31;;;;;;;1.00;1.00;;;18.00;99.90;;;;;;5034019;28;20025;-80
2023/10/12 11:17:04;;;;;;;0.03;0.03;;;18.00;99.90;;;;;;5033138;28;20052;-82
2023/10/12 11:19:33;;;;;;;1.23;1.13;;;18.00;99.90;;;;;;5033833;28;20029;-74
2023/10/12 11:21:58;;;;;;;1.45;1.05;;;17.90;99.90;;;;;;5032748;28;20029;-74
2023/10/12 11:24:25;;;;;;;1.65;0.93;;;18.10;99.90;;;;;;5033741;28;20021;-74
2023/10/12 11:26:56;;;;;;;5.88;2.83;;;18.10;99.90;;;;;;5034004;28;20383;-74
2023/10/12 11:29:24;;;;;;;3.95;1.75;;;18.20;99.90;;;;;;5034064;28;20033;-78
2023/10/12 11:32:08;;;;;;;4.57;2.67;;;18.10;99.90;;;;;;5028438;28;20025;-81
2023/10/12 11:34:52;;;;;;;4.30;2.05;;;18.00;99.90;;;;;;5014095;28;20040;-81
2023/10/12 11:37:18;;;;;;;21.08;5.18;;;17.80;99.90;;;;;;5013728;28;20044;-81
2023/10/12 11:39:49;;;;;;;1.58;1.48;;;17.90;99.90;;;;;;5013694;28;20430;-80
2023/10/12 11:42:15;;;;;;;1.13;1.02;;;18.00;99.90;;;;;;5012472;28;20034;-81
2023/10/12 11:44:42;;;;;;;0.00;0.00;;;18.00;99.90;;;;;;5013928;28;20025;-80
2023/10/12 11:47:10;;;;;;;1.85;0.43;;;18.00;99.90;;;;;;5012616;28;20116;-80
2023/10/12 11:49:55;;;;;;;1.10;1.00;;;18.00;99.90;;;;;;5012336;28;20076;-80
2023/10/12 11:52:37;;;;;;;4.18;2.30;;;18.30;99.90;;;;;;5012403;28;20399;-80
2023/10/12 11:55:06;;;;;;;3.05;2.15;;;18.20;99.90;;;;;;5012369;28;20026;-79
2023/10/12 11:57:33;;;;;;;1.73;1.60;;;18.20;99.90;;;;;;5012398;28;20045;-79
2023/10/12 12:00:00;;;;;;;4.05;0.95;;;18.20;99.90;;;;;;5013681;28;20056;-79
2023/10/12 12:02:26;;;;;;;1.75;1.15;;;18.30;99.90;;;;;;5013423;28;20101;-80
2023/10/12 12:04:52;;;;;;;11.05;3.20;;;18.30;99.90;;;;;;5013421;28;20034;-80
2023/10/12 12:07:20;;;;;;;20.27;7.88;;;18.20;99.90;;;;;;5010850;28;20100;-80
2023/10/12 12:09:53;;;;;;;0.73;0.70;;;18.10;99.90;;;;;;5012742;28;20026;-80
2023/10/12 12:12:18;;;;;;;2.30;1.48;;;18.30;99.90;;;;;;5013392;28;20386;-80
2023/10/12 12:14:47;;;;;;;1.70;1.48;;;18.50;99.90;;;;;;5013494;28;20109;-80
2023/10/12 12:17:16;;;;;;;3.03;2.20;;;18.60;99.90;;;;;;5013058;28;20108;-79
2023/10/12 12:19:42;;;;;;;3.03;1.88;;;18.10;99.90;;;;;;5011828;28;20030;-79
2023/10/12 12:22:10;;;;;;;6.30;3.22;;;18.00;99.90;;;;;;5013186;28;20100;-80
2023/10/12 12:24:37;;;;;;;2.20;2.03;;;18.00;99.90;;;;;;5012033;28;20406;-79
2023/10/12 12:27:05;;;;;;;8.75;3.15;;;18.10;99.90;;;;;;5018946;28;20143;-79
2023/10/12 12:29:32;;;;;;;3.55;1.63;;;18.10;99.90;;;;;;5032956;28;20087;-80
2023/10/12 12:31:57;;;;;;;0.25;0.20;;;18.10;99.90;;;;;;5032805;28;20029;-80
2023/10/12 12:34:38;;;;;;;8.80;4.05;;;18.10;99.90;;;;;;5031390;28;20029;-80
2023/10/12 12:37:06;;;;;;;0.17;0.17;;;18.10;99.90;;;;;;5031517;28;20112;-80
2023/10/12 12:39:34;;;;;;;6.22;3.92;;;18.20;99.90;;;;;;5031670;28;20025;-80
2023/10/12 12:42:01;;;;;;;8.10;4.07;;;18.20;99.90;;;;;;5032813;28;20504;-80
2023/10/12 12:44:26;;;;;;;6.38;1.85;;;18.20;99.90;;;;;;5032768;28;20018;-79
2023/10/12 12:46:52;;;;;;;5.60;1.77;;;18.20;99.90;;;;;;5030328;28;20036;-79
2023/10/12 12:49:18;;;;;;;0.75;0.73;;;18.30;99.90;;;;;;5020924;28;20418;-80
2023/10/12 12:51:45;;;;;;;1.30;1.15;;;18.30;99.90;;;;;;5032537;28;20146;-79
2023/10/12 12:54:11;;;;;;;2.95;2.13;;;18.40;99.90;;;;;;5032883;28;20030;-79
2023/10/12 12:56:37;;;;;;;2.72;0.88;;;18.40;99.90;;;;;;5032436;28;20040;-79
2023/10/12 12:59:04;;;;;;;11.75;5.00;;;18.40;99.90;;;;;;5032476;28;20037;-79
2023/10/12 13:01:31;;;;;;;0.98;0.98;;;18.30;99.90;;;;;;5032657;28;20060;-79
2023/10/12 13:03:57;;;;;;;3.33;2.20;;;18.20;99.90;;;;;;5031143;28;20133;-79
2023/10/12 13:06:26;;;;;;;0.32;0.32;;;18.20;99.90;;;;;;5032524;28;20223;-80
2023/10/12 13:08:52;;;;;;;1.42;1.33;;;18.10;99.90;;;;;;5032357;28;20041;-80
2023/10/12 13:11:19;;;;;;;5.15;2.72;;;18.10;99.90;;;;;;5032263;28;20022;-79
2023/10/12 13:13:47;;;;;;;4.80;2.63;;;18.10;99.90;;;;;;5032608;28;20041;-79
2023/10/12 13:16:13;;;;;;;0.50;0.50;;;18.20;99.90;;;;;;5032216;28;20045;-80
2023/10/12 13:18:48;;;;;;;23.55;4.72;;;18.10;99.90;;;;;;5032097;28;20025;-80
2023/10/12 13:21:15;;;;;;;2.83;1.83;;;18.20;99.90;;;;;;5032984;28;20025;-80
2023/10/12 13:23:42;;;;;;;4.43;1.30;;;18.20;99.90;;;;;;5035185;28;20080;-79
2023/10/12 13:26:10;;;;;;;2.72;1.88;;;18.10;99.90;;;;;;5036374;28;20026;-80
2023/10/12 13:28:38;;;;;;;1.85;1.75;;;18.10;99.90;;;;;;5036177;28;20386;-80
2023/10/12 13:31:05;;;;;;;2.22;1.65;;;18.20;99.90;;;;;;5035292;28;20087;-79
2023/10/12 13:33:31;;;;;;;3.33;2.00;;;18.20;99.90;;;;;;5035594;28;20065;-79
2023/10/12 13:35:58;;;;;;;6.82;2.97;;;18.20;99.90;;;;;;5036296;28;20044;-80
2023/10/12 13:38:29;;;;;;;2.28;1.75;;;18.30;99.90;;;;;;5035897;28;20025;-79
2023/10/12 13:40:55;;;;;;;0.47;0.47;;;18.30;99.90;;;;;;5036132;28;20034;-80
2023/10/12 13:43:30;;;;;;;3.42;1.35;;;18.40;99.90;;;;;;5035684;28;20042;-80
2023/10/12 13:45:57;;;;;;;6.97;4.13;;;18.50;99.90;;;;;;5034521;28;20069;-80
2023/10/12 13:48:25;;;;;;;3.35;1.60;;;18.40;99.90;;;;;;5034458;28;20112;-80
2023/10/12 13:51:04;;;;;;;3.15;2.03;;;18.40;99.90;;;;;;5035965;28;20033;-80
2023/10/12 13:53:36;;;;;;;0.85;0.65;;;18.50;99.90;;;;;;5035576;28;20057;-79
2023/10/12 13:56:04;;;;;;;1.60;1.15;;;18.50;99.90;;;;;;5035820;28;20045;-80
2023/10/12 13:58:34;;;;;;;2.58;1.55;;;18.50;99.90;;;;;;5035713;28;20041;-80
2023/10/12 14:01:02;;;;;;;5.68;3.35;;;18.60;99.90;;;;;;5035561;28;20013;-80
2023/10/12 14:03:34;;;;;;;6.50;1.95;;;18.60;99.90;;;;;;5035337;28;20049;-80
2023/10/12 14:06:01;;;;;;;2.95;2.47;;;18.50;99.90;;;;;;5029968;28;20033;-80
2023/10/12 14:08:32;;;;;;;12.63;6.05;;;18.50;99.90;;;;;;5035260;28;20033;-80
2023/10/12 14:11:03;;;;;;;0.88;0.85;;;18.50;99.90;;;;;;5035382;28;20488;-79
2023/10/12 14:13:32;;;;;;;7.70;2.40;;;18.70;99.90;;;;;;5035462;28;20056;-80
2023/10/12 14:15:59;;;;;;;5.82;4.18;;;18.80;99.90;;;;;;5035186;28;20386;-79
2023/10/12 14:18:28;;;;;;;2.30;1.85;;;18.70;99.90;;;;;;5034097;28;20041;-80
2023/10/12 14:20:55;;;;;;;6.35;3.25;;;18.70;99.90;;;;;;5035098;28;20084;-80
2023/10/12 14:23:26;;;;;;;1.55;1.25;;;18.70;99.90;;;;;;5035046;28;20033;-79
2023/10/12 14:25:54;;;;;;;10.83;2.23;;;18.60;99.90;;;;;;5035201;28;20037;-80
2023/10/12 14:28:21;;;;;;;5.07;2.30;;;18.70;99.90;;;;;;5033739;28;20056;-80
2023/10/12 14:30:47;;;;;;;2.60;1.40;;;18.70;99.90;;;;;;5034880;28;20026;-79
2023/10/12 14:33:20;;;;;;;8.63;4.53;;;18.70;99.90;;;;;;5032995;28;20029;-79
2023/10/12 14:35:48;;;;;;;7.72;3.75;;;18.70;99.90;;;;;;5035095;28;20057;-80
2023/10/12 14:38:14;;;;;;;1.13;0.90;;;18.70;99.90;;;;;;5034927;28;20068;-80
2023/10/12 14:40:45;;;;;;;3.50;0.85;;;18.80;99.90;;;;;;5035138;28;20018;-81
2023/10/12 14:43:12;;;;;;;3.90;2.40;;;19.00;99.90;;;;;;5033700;28;20026;-81
2023/10/12 14:45:55;;;;;;;2.83;2.28;;;18.90;99.90;;;;;;5034589;28;20017;-82
2023/10/12 14:48:25;;;;;;;1.65;1.55;;;18.90;99.90;;;;;;5034630;28;20025;-82
2023/10/12 14:51:12;;;;;;;1.90;0.20;;;18.90;99.90;;;;;;5033862;28;20040;-81
2023/10/12 14:53:39;;;;;;;3.95;3.38;;;18.80;99.90;;;;;;5033443;28;20030;-79
2023/10/12 14:56:06;;;;;;;0.05;0.05;;;18.80;99.90;;;;;;5034696;28;20115;-82
2023/10/12 14:58:32;;;;;;;1.65;0.85;;;18.90;99.90;;;;;;5034290;28;20470;-80
2023/10/12 15:00:59;;;;;;;1.73;1.63;;;18.90;99.90;;;;;;5034777;28;20385;-80
2023/10/12 15:03:26;;;;;;;0.90;0.50;;;18.90;99.90;;;;;;5034526;28;20501;-81
2023/10/12 15:05:55;;;;;;;7.80;3.47;;;19.10;99.90;;;;;;5034295;28;20104;-80
2023/10/12 15:08:21;;;;;;;3.03;2.40;;;19.00;99.90;;;;;;5034373;28;20026;-81
2023/10/12 15:10:48;;;;;;;7.30;4.63;;;18.80;99.90;;;;;;5034265;28;20425;-81
2023/10/12 15:13:16;;;;;;;2.50;2.03;;;18.90;99.90;;;;;;5034143;28;20064;-81
2023/10/12 15:15:46;;;;;;;0.47;0.47;;;18.90;99.90;;;;;;5034031;28;20081;-82
2023/10/12 15:18:14;;;;;;;0.82;0.82;;;18.90;99.90;;;;;;5034439;28;20045;-81
2023/10/12 15:20:43;;;;;;;5.93;2.00;;;18.90;99.90;;;;;;5033901;28;20017;-81
2023/10/12 15:23:09;;;;;;;0.00;0.00;;;18.90;99.90;;;;;;5034307;28;20021;-82
2023/10/12 15:25:35;;;;;;;5.68;1.42;;;19.10;99.90;;;;;;5034153;28;20030;-82
2023/10/12 15:28:06;;;;;;;0.00;0.00;;;19.10;99.90;;;;;;5033774;28;20024;-82